الصفحة الرئيسية
METAR-TAF:

METAR-TAF

مطار :

Bandar-e Mahshahr, إيران

دائرة عرض: 30-33-23N, خط طول: 049-09-07E, ارتفاع: 2 متر

مراقبة الطقس الحالي

تاريخ ووقت الإصدار 1ساعة و 1 دقيقة قبل الساعة 23:00UTC
ريح 6 عقدة من الشمال
درجة الحرارة 34°درجة مئوية
الرطوبة 34%
ضغط 997 hPa
الرؤية 10 كم أو أكثر
الغيوم لا تقل 1500 م ولا وجود لمزنة ركامية السحاب الأسود

METAR: OIAM 242300Z 35006KT CAVOK 34/16 Q0997

زمن: 04:31 (00:01 UTC)


TAF: مفقودة

أرصاد الطقس والتوقعات من أكثر من 4000 مطار (تقارير الطقس للمطار METAR والتنبؤ بالطقس بالمطارTAF).

المحطات المتاحة هي النقط الصفراء والحمراء على الخريطة.

حرك المؤشر فوق النقطة لمعرفة اسم المحطة.

ثم انقر لمعرفة أرصاد وتوقعات الطقس.

لتغيير الخارطة: اضغط على الأزرار الخضراء مع رمز الصليب الأسود للتكبير. على الزر الأخضر مع شرطة للتصغير، أو على الأسهم الخضراء للخرائط المجاورة.


METAR-TAF: